KAFF/AFF METAR and TAF weather

Enter ICAO airport designator
Station Type Date Time Source
KAFF METAR 2020/04/08 19:58 UTC NOAA

KAFF 081958Z AUTO 20004KT 10SM SCT120 19/M15 A3006 RMK AO2 PK WND 25031/00 SLP112 T01911146


Station Type Date Time Source
KAFF Decoded METAR 2020/04/08 19:58 UTC NOAA

Air Force Academy, CO, United States (KAFF) 38-58N 104-49W 1999M
Apr 08, 2020 - 03:58 PM EDT / 2020.04.08 1958 UTC
Wind: from the SSW (200 degrees) at 5 MPH (4 KT):0
Visibility: 10 mile(s):0
Sky conditions: partly cloudy
Temperature: 66.4 F (19.1 C)
Dew Point: 5.7 F (-14.6 C)
Relative Humidity: 8%
Pressure (altimeter): 30.06 in. Hg (1017 hPa)
ob: KAFF 081958Z AUTO 20004KT 10SM SCT120 19/M15 A3006 RMK AO2 PK WND 25031/00 SLP112 T01911146
cycle: 20

Station Type Date Time Source
KAFF TAF 2020/04/08 19:24 UTC NOAA

TAF KAFF 081912Z 0819/1001 23010G16KT 9999 FEW150 520006 QNH3004INS WND 200V020 ROTOR CONDS EXIST
BECMG 0820/0821 35012G18KT 9999 SCT100 520009 QNH3002INS WND 280V060
BECMG 0901/0902 35009KT 9999 SCT050 BKN100 QNH3010INS
BECMG 0908/0909 34012G20KT 9999 BKN018 620182 QNH3010INS
BECMG 0915/0916 15012KT 9999 BKN020 620202 QNH3008INS
BECMG 0918/0919 15012G18KT 9999 SCT025 QNH3008INS TX18/0821Z TN04/0910Z LAST NO
AMDS AFT 0821 NEXT 0911

Example: see airport list